sensor_id;sensor_type;location;lat;lon;timestamp;temperature;humidity
14735;DHT22;7458;49.002;8.472;2023-02-22T00:01:23;8.60;99.90
14735;DHT22;7458;49.002;8.472;2023-02-22T00:04:11;8.60;99.90
14735;DHT22;7458;49.002;8.472;2023-02-22T00:06:38;8.50;99.90
14735;DHT22;7458;49.002;8.472;2023-02-22T00:09:04;8.50;99.90
14735;DHT22;7458;49.002;8.472;2023-02-22T00:11:33;8.50;99.90
14735;DHT22;7458;49.002;8.472;2023-02-22T00:13:59;8.50;99.90
14735;DHT22;7458;49.002;8.472;2023-02-22T00:16:28;8.50;99.90
14735;DHT22;7458;49.002;8.472;2023-02-22T00:18:55;8.40;99.90
14735;DHT22;7458;49.002;8.472;2023-02-22T00:21:21;8.40;99.90
14735;DHT22;7458;49.002;8.472;2023-02-22T00:23:49;8.30;99.90
14735;DHT22;7458;49.002;8.472;2023-02-22T00:26:20;8.30;99.90
14735;DHT22;7458;49.002;8.472;2023-02-22T00:28:52;8.30;99.90
14735;DHT22;7458;49.002;8.472;2023-02-22T00:31:19;8.20;99.90
14735;DHT22;7458;49.002;8.472;2023-02-22T00:33:46;8.20;99.90
14735;DHT22;7458;49.002;8.472;2023-02-22T00:36:12;9.60;99.90
14735;DHT22;7458;49.002;8.472;2023-02-22T00:38:39;8.10;99.90
14735;DHT22;7458;49.002;8.472;2023-02-22T00:41:06;8.20;99.90
14735;DHT22;7458;49.002;8.472;2023-02-22T00:43:32;8.10;99.90
14735;DHT22;7458;49.002;8.472;2023-02-22T00:45:59;8.10;99.90
14735;DHT22;7458;49.002;8.472;2023-02-22T00:48:25;8.10;99.90
14735;DHT22;7458;49.002;8.472;2023-02-22T00:50:51;8.10;99.90
14735;DHT22;7458;49.002;8.472;2023-02-22T00:53:20;8.00;99.90
14735;DHT22;7458;49.002;8.472;2023-02-22T00:55:47;8.00;99.90
14735;DHT22;7458;49.002;8.472;2023-02-22T00:58:13;8.00;99.90
14735;DHT22;7458;49.002;8.472;2023-02-22T01:00:40;8.10;99.90
14735;DHT22;7458;49.002;8.472;2023-02-22T01:03:10;8.10;99.90
14735;DHT22;7458;49.002;8.472;2023-02-22T01:05:37;8.20;99.90
14735;DHT22;7458;49.002;8.472;2023-02-22T01:08:05;8.30;99.90
14735;DHT22;7458;49.002;8.472;2023-02-22T01:10:32;8.30;99.90
14735;DHT22;7458;49.002;8.472;2023-02-22T01:12:59;8.20;99.90
14735;DHT22;7458;49.002;8.472;2023-02-22T01:15:28;8.20;99.90
14735;DHT22;7458;49.002;8.472;2023-02-22T01:17:55;8.20;99.90
14735;DHT22;7458;49.002;8.472;2023-02-22T01:20:23;8.20;99.90
14735;DHT22;7458;49.002;8.472;2023-02-22T01:22:52;8.10;99.90
14735;DHT22;7458;49.002;8.472;2023-02-22T01:25:22;7.90;99.90
14735;DHT22;7458;49.002;8.472;2023-02-22T01:27:51;7.90;99.90
14735;DHT22;7458;49.002;8.472;2023-02-22T01:30:21;7.80;99.90
14735;DHT22;7458;49.002;8.472;2023-02-22T01:32:49;7.80;99.90
14735;DHT22;7458;49.002;8.472;2023-02-22T01:35:20;7.80;99.90
14735;DHT22;7458;49.002;8.472;2023-02-22T01:37:47;7.80;99.90
14735;DHT22;7458;49.002;8.472;2023-02-22T01:40:18;7.60;99.90
14735;DHT22;7458;49.002;8.472;2023-02-22T01:42:50;7.50;99.90
14735;DHT22;7458;49.002;8.472;2023-02-22T01:48:15;7.50;99.90
14735;DHT22;7458;49.002;8.472;2023-02-22T01:53:21;7.60;99.90
14735;DHT22;7458;49.002;8.472;2023-02-22T01:55:52;7.50;99.90
14735;DHT22;7458;49.002;8.472;2023-02-22T01:58:21;7.60;99.90
14735;DHT22;7458;49.002;8.472;2023-02-22T02:00:50;7.60;99.90
14735;DHT22;7458;49.002;8.472;2023-02-22T02:03:20;7.50;99.90
14735;DHT22;7458;49.002;8.472;2023-02-22T02:05:53;7.60;99.90
14735;DHT22;7458;49.002;8.472;2023-02-22T02:08:26;7.60;99.90
14735;DHT22;7458;49.002;8.472;2023-02-22T02:11:02;7.60;99.90
14735;DHT22;7458;49.002;8.472;2023-02-22T02:13:32;7.60;99.90
14735;DHT22;7458;49.002;8.472;2023-02-22T02:15:58;7.60;99.90
14735;DHT22;7458;49.002;8.472;2023-02-22T02:18:26;7.50;99.90
14735;DHT22;7458;49.002;8.472;2023-02-22T02:33:23;7.30;99.90
14735;DHT22;7458;49.002;8.472;2023-02-22T02:36:09;7.20;99.90
14735;DHT22;7458;49.002;8.472;2023-02-22T02:38:49;7.20;99.90
14735;DHT22;7458;49.002;8.472;2023-02-22T02:41:34;7.20;99.90
14735;DHT22;7458;49.002;8.472;2023-02-22T02:44:19;7.20;99.90
14735;DHT22;7458;49.002;8.472;2023-02-22T02:47:00;7.20;99.90
14735;DHT22;7458;49.002;8.472;2023-02-22T02:52:09;7.20;99.90
14735;DHT22;7458;49.002;8.472;2023-02-22T02:54:38;7.10;99.90
14735;DHT22;7458;49.002;8.472;2023-02-22T02:57:05;7.00;99.90
14735;DHT22;7458;49.002;8.472;2023-02-22T02:59:35;7.00;99.90
14735;DHT22;7458;49.002;8.472;2023-02-22T03:05:26;7.00;99.90
14735;DHT22;7458;49.002;8.472;2023-02-22T03:08:29;6.90;99.90
14735;DHT22;7458;49.002;8.472;2023-02-22T03:11:14;6.90;99.90
14735;DHT22;7458;49.002;8.472;2023-02-22T03:16:58;6.80;99.90
14735;DHT22;7458;49.002;8.472;2023-02-22T03:19:50;6.80;99.90
14735;DHT22;7458;49.002;8.472;2023-02-22T03:22:27;6.70;99.90
14735;DHT22;7458;49.002;8.472;2023-02-22T03:25:06;6.70;99.90
14735;DHT22;7458;49.002;8.472;2023-02-22T03:27:44;6.70;99.90
14735;DHT22;7458;49.002;8.472;2023-02-22T03:30:18;6.70;99.90
14735;DHT22;7458;49.002;8.472;2023-02-22T03:32:51;6.70;99.90
14735;DHT22;7458;49.002;8.472;2023-02-22T03:35:24;6.70;99.90
14735;DHT22;7458;49.002;8.472;2023-02-22T03:38:02;6.60;99.90
14735;DHT22;7458;49.002;8.472;2023-02-22T03:40:35;6.60;99.90
14735;DHT22;7458;49.002;8.472;2023-02-22T03:43:12;6.60;99.90
14735;DHT22;7458;49.002;8.472;2023-02-22T03:45:43;6.60;99.90
14735;DHT22;7458;49.002;8.472;2023-02-22T03:51:12;6.60;99.90
14735;DHT22;7458;49.002;8.472;2023-02-22T03:53:40;6.60;99.90
14735;DHT22;7458;49.002;8.472;2023-02-22T03:56:14;6.60;99.90
14735;DHT22;7458;49.002;8.472;2023-02-22T03:58:46;6.50;99.90
14735;DHT22;7458;49.002;8.472;2023-02-22T04:01:14;6.50;99.90
14735;DHT22;7458;49.002;8.472;2023-02-22T04:03:39;6.40;99.90
14735;DHT22;7458;49.002;8.472;2023-02-22T04:06:07;6.50;99.90
14735;DHT22;7458;49.002;8.472;2023-02-22T04:08:33;6.50;99.90
14735;DHT22;7458;49.002;8.472;2023-02-22T04:10:59;6.50;99.90
14735;DHT22;7458;49.002;8.472;2023-02-22T04:13:26;6.50;99.90
14735;DHT22;7458;49.002;8.472;2023-02-22T04:15:52;6.40;99.90
14735;DHT22;7458;49.002;8.472;2023-02-22T04:18:18;6.40;99.90
14735;DHT22;7458;49.002;8.472;2023-02-22T04:20:44;6.40;99.90
14735;DHT22;7458;49.002;8.472;2023-02-22T04:23:10;6.40;99.90
14735;DHT22;7458;49.002;8.472;2023-02-22T04:25:36;6.40;99.90
14735;DHT22;7458;49.002;8.472;2023-02-22T04:28:02;6.30;99.90
14735;DHT22;7458;49.002;8.472;2023-02-22T04:30:28;6.30;99.90
14735;DHT22;7458;49.002;8.472;2023-02-22T04:32:55;6.30;99.90
14735;DHT22;7458;49.002;8.472;2023-02-22T04:35:22;6.30;99.90
14735;DHT22;7458;49.002;8.472;2023-02-22T04:37:48;6.30;99.90
14735;DHT22;7458;49.002;8.472;2023-02-22T04:40:15;6.30;99.90
14735;DHT22;7458;49.002;8.472;2023-02-22T04:42:41;6.20;99.90
14735;DHT22;7458;49.002;8.472;2023-02-22T04:45:08;6.20;99.90
14735;DHT22;7458;49.002;8.472;2023-02-22T04:47:35;6.20;99.90
14735;DHT22;7458;49.002;8.472;2023-02-22T04:50:03;6.20;99.90
14735;DHT22;7458;49.002;8.472;2023-02-22T04:52:30;6.20;99.90
14735;DHT22;7458;49.002;8.472;2023-02-22T04:54:56;6.20;99.90
14735;DHT22;7458;49.002;8.472;2023-02-22T04:57:22;6.10;99.90
14735;DHT22;7458;49.002;8.472;2023-02-22T04:59:48;6.20;99.90
14735;DHT22;7458;49.002;8.472;2023-02-22T05:02:15;6.20;99.90
14735;DHT22;7458;49.002;8.472;2023-02-22T05:04:42;6.30;99.90
14735;DHT22;7458;49.002;8.472;2023-02-22T05:07:07;6.20;99.90
14735;DHT22;7458;49.002;8.472;2023-02-22T05:09:33;6.10;99.90
14735;DHT22;7458;49.002;8.472;2023-02-22T05:11:59;6.10;99.90
14735;DHT22;7458;49.002;8.472;2023-02-22T05:14:25;6.10;99.90
14735;DHT22;7458;49.002;8.472;2023-02-22T05:16:54;6.10;99.90
14735;DHT22;7458;49.002;8.472;2023-02-22T05:19:21;6.00;99.90
14735;DHT22;7458;49.002;8.472;2023-02-22T05:21:47;6.00;99.90
14735;DHT22;7458;49.002;8.472;2023-02-22T05:24:14;6.00;99.90
14735;DHT22;7458;49.002;8.472;2023-02-22T05:26:41;6.00;99.90
14735;DHT22;7458;49.002;8.472;2023-02-22T05:29:07;6.00;99.90
14735;DHT22;7458;49.002;8.472;2023-02-22T05:31:33;5.90;99.90
14735;DHT22;7458;49.002;8.472;2023-02-22T05:33:58;5.90;99.90
14735;DHT22;7458;49.002;8.472;2023-02-22T05:36:24;5.90;99.90
14735;DHT22;7458;49.002;8.472;2023-02-22T05:38:50;5.90;99.90
14735;DHT22;7458;49.002;8.472;2023-02-22T05:41:16;5.90;99.90
14735;DHT22;7458;49.002;8.472;2023-02-22T05:43:41;5.90;99.90
14735;DHT22;7458;49.002;8.472;2023-02-22T05:46:07;5.90;99.90
14735;DHT22;7458;49.002;8.472;2023-02-22T05:48:33;5.80;99.90
14735;DHT22;7458;49.002;8.472;2023-02-22T05:50:59;5.80;99.90
14735;DHT22;7458;49.002;8.472;2023-02-22T05:53:25;5.80;99.90
14735;DHT22;7458;49.002;8.472;2023-02-22T05:55:51;5.70;99.90
14735;DHT22;7458;49.002;8.472;2023-02-22T05:58:17;5.70;99.90
14735;DHT22;7458;49.002;8.472;2023-02-22T06:00:43;5.70;99.90
14735;DHT22;7458;49.002;8.472;2023-02-22T06:03:10;5.60;99.90
14735;DHT22;7458;49.002;8.472;2023-02-22T06:05:40;5.60;99.90
14735;DHT22;7458;49.002;8.472;2023-02-22T06:08:06;5.60;99.90
14735;DHT22;7458;49.002;8.472;2023-02-22T06:10:33;5.50;99.90
14735;DHT22;7458;49.002;8.472;2023-02-22T06:13:00;5.50;99.90
14735;DHT22;7458;49.002;8.472;2023-02-22T06:15:27;5.40;99.90
14735;DHT22;7458;49.002;8.472;2023-02-22T06:18:06;5.40;99.90
14735;DHT22;7458;49.002;8.472;2023-02-22T06:21:01;5.40;99.90
14735;DHT22;7458;49.002;8.472;2023-02-22T06:23:28;5.50;99.90
14735;DHT22;7458;49.002;8.472;2023-02-22T06:25:54;5.50;99.90
14735;DHT22;7458;49.002;8.472;2023-02-22T06:28:20;5.50;99.90
14735;DHT22;7458;49.002;8.472;2023-02-22T06:30:45;5.50;99.90
14735;DHT22;7458;49.002;8.472;2023-02-22T06:33:11;5.50;99.90
14735;DHT22;7458;49.002;8.472;2023-02-22T06:35:37;5.50;99.90
14735;DHT22;7458;49.002;8.472;2023-02-22T06:38:03;5.60;99.90
14735;DHT22;7458;49.002;8.472;2023-02-22T06:40:29;5.70;99.90
14735;DHT22;7458;49.002;8.472;2023-02-22T06:42:56;5.80;99.90
14735;DHT22;7458;49.002;8.472;2023-02-22T06:45:24;5.80;99.90
14735;DHT22;7458;49.002;8.472;2023-02-22T06:47:50;5.80;99.90
14735;DHT22;7458;49.002;8.472;2023-02-22T06:50:24;5.90;99.90
14735;DHT22;7458;49.002;8.472;2023-02-22T06:52:53;6.00;99.90
14735;DHT22;7458;49.002;8.472;2023-02-22T06:55:26;5.90;99.90
14735;DHT22;7458;49.002;8.472;2023-02-22T06:57:53;6.00;99.90
14735;DHT22;7458;49.002;8.472;2023-02-22T07:00:21;6.00;99.90
14735;DHT22;7458;49.002;8.472;2023-02-22T07:02:52;6.00;99.90
14735;DHT22;7458;49.002;8.472;2023-02-22T07:05:20;6.10;99.90
14735;DHT22;7458;49.002;8.472;2023-02-22T07:07:48;6.10;99.90
14735;DHT22;7458;49.002;8.472;2023-02-22T07:10:26;6.10;99.90
14735;DHT22;7458;49.002;8.472;2023-02-22T07:12:54;6.20;99.90
14735;DHT22;7458;49.002;8.472;2023-02-22T07:15:22;6.20;99.90
14735;DHT22;7458;49.002;8.472;2023-02-22T07:17:50;6.30;99.90
14735;DHT22;7458;49.002;8.472;2023-02-22T07:20:17;6.50;99.90
14735;DHT22;7458;49.002;8.472;2023-02-22T07:22:45;6.50;99.90
14735;DHT22;7458;49.002;8.472;2023-02-22T07:25:12;6.50;99.90
14735;DHT22;7458;49.002;8.472;2023-02-22T07:27:39;6.60;99.90
14735;DHT22;7458;49.002;8.472;2023-02-22T07:30:07;6.70;99.90
14735;DHT22;7458;49.002;8.472;2023-02-22T07:32:58;6.70;99.90
14735;DHT22;7458;49.002;8.472;2023-02-22T07:35:33;6.80;99.90
14735;DHT22;7458;49.002;8.472;2023-02-22T07:38:05;6.80;99.90
14735;DHT22;7458;49.002;8.472;2023-02-22T07:40:32;6.90;99.90
14735;DHT22;7458;49.002;8.472;2023-02-22T07:43:04;7.00;99.90
14735;DHT22;7458;49.002;8.472;2023-02-22T07:45:38;7.00;99.90
14735;DHT22;7458;49.002;8.472;2023-02-22T07:48:05;7.10;99.90
14735;DHT22;7458;49.002;8.472;2023-02-22T07:50:33;7.10;99.90
14735;DHT22;7458;49.002;8.472;2023-02-22T07:53:01;7.10;99.90
14735;DHT22;7458;49.002;8.472;2023-02-22T07:55:30;7.20;99.90
14735;DHT22;7458;49.002;8.472;2023-02-22T07:58:03;7.20;99.90
14735;DHT22;7458;49.002;8.472;2023-02-22T08:00:36;7.20;99.90
14735;DHT22;7458;49.002;8.472;2023-02-22T08:03:10;7.30;99.90
14735;DHT22;7458;49.002;8.472;2023-02-22T08:05:39;7.20;99.90
14735;DHT22;7458;49.002;8.472;2023-02-22T08:08:07;7.20;99.90
14735;DHT22;7458;49.002;8.472;2023-02-22T08:10:34;7.30;99.90
14735;DHT22;7458;49.002;8.472;2023-02-22T08:13:01;7.30;99.90
14735;DHT22;7458;49.002;8.472;2023-02-22T08:15:34;7.30;99.90
14735;DHT22;7458;49.002;8.472;2023-02-22T08:18:03;7.40;99.90
14735;DHT22;7458;49.002;8.472;2023-02-22T08:20:30;7.40;99.90
14735;DHT22;7458;49.002;8.472;2023-02-22T08:22:57;7.40;99.90
14735;DHT22;7458;49.002;8.472;2023-02-22T08:25:25;7.50;99.90
14735;DHT22;7458;49.002;8.472;2023-02-22T08:27:57;7.60;99.90
14735;DHT22;7458;49.002;8.472;2023-02-22T08:30:30;7.80;99.90
14735;DHT22;7458;49.002;8.472;2023-02-22T08:32:58;7.90;99.90
14735;DHT22;7458;49.002;8.472;2023-02-22T08:35:24;7.90;99.90
14735;DHT22;7458;49.002;8.472;2023-02-22T08:37:54;8.00;99.90
14735;DHT22;7458;49.002;8.472;2023-02-22T08:40:28;8.20;99.90
14735;DHT22;7458;49.002;8.472;2023-02-22T08:42:56;8.20;99.90
14735;DHT22;7458;49.002;8.472;2023-02-22T08:45:22;8.30;99.90
14735;DHT22;7458;49.002;8.472;2023-02-22T08:47:49;8.40;99.90
14735;DHT22;7458;49.002;8.472;2023-02-22T08:50:29;8.60;99.90
14735;DHT22;7458;49.002;8.472;2023-02-22T08:52:59;8.70;99.90
14735;DHT22;7458;49.002;8.472;2023-02-22T08:55:28;8.90;99.90
14735;DHT22;7458;49.002;8.472;2023-02-22T08:57:59;9.00;99.90
14735;DHT22;7458;49.002;8.472;2023-02-22T09:00:28;9.10;99.90
14735;DHT22;7458;49.002;8.472;2023-02-22T09:02:58;9.20;99.90
14735;DHT22;7458;49.002;8.472;2023-02-22T09:05:25;9.30;99.90
14735;DHT22;7458;49.002;8.472;2023-02-22T09:07:51;9.40;99.90
14735;DHT22;7458;49.002;8.472;2023-02-22T09:10:20;9.40;99.90
14735;DHT22;7458;49.002;8.472;2023-02-22T09:12:52;9.50;99.90
14735;DHT22;7458;49.002;8.472;2023-02-22T09:15:21;9.60;99.90
14735;DHT22;7458;49.002;8.472;2023-02-22T09:17:47;9.60;99.90
14735;DHT22;7458;49.002;8.472;2023-02-22T09:20:16;9.70;99.90
14735;DHT22;7458;49.002;8.472;2023-02-22T09:22:45;9.70;99.90
14735;DHT22;7458;49.002;8.472;2023-02-22T09:25:12;9.80;99.90
14735;DHT22;7458;49.002;8.472;2023-02-22T09:27:39;9.80;99.90
14735;DHT22;7458;49.002;8.472;2023-02-22T09:30:06;9.80;99.90
14735;DHT22;7458;49.002;8.472;2023-02-22T09:32:35;9.90;99.90
14735;DHT22;7458;49.002;8.472;2023-02-22T09:35:01;10.00;99.90
14735;DHT22;7458;49.002;8.472;2023-02-22T09:37:27;10.00;99.90
14735;DHT22;7458;49.002;8.472;2023-02-22T09:39:53;10.10;99.90
14735;DHT22;7458;49.002;8.472;2023-02-22T09:42:32;10.20;99.90
14735;DHT22;7458;49.002;8.472;2023-02-22T09:45:06;10.30;99.90
14735;DHT22;7458;49.002;8.472;2023-02-22T09:47:51;10.50;99.90
14735;DHT22;7458;49.002;8.472;2023-02-22T09:50:24;10.70;99.90
14735;DHT22;7458;49.002;8.472;2023-02-22T09:53:02;10.90;99.90
14735;DHT22;7458;49.002;8.472;2023-02-22T09:55:46;11.10;99.90
14735;DHT22;7458;49.002;8.472;2023-02-22T09:58:38;11.30;99.90
14735;DHT22;7458;49.002;8.472;2023-02-22T10:01:18;11.50;99.90
14735;DHT22;7458;49.002;8.472;2023-02-22T10:07:12;11.50;99.90
14735;DHT22;7458;49.002;8.472;2023-02-22T10:09:44;11.70;99.90
14735;DHT22;7458;49.002;8.472;2023-02-22T10:12:45;11.90;99.90
14735;DHT22;7458;49.002;8.472;2023-02-22T10:16:00;12.10;99.90
14735;DHT22;7458;49.002;8.472;2023-02-22T10:21:34;12.50;99.90
14735;DHT22;7458;49.002;8.472;2023-02-22T10:30:39;13.20;99.90
14735;DHT22;7458;49.002;8.472;2023-02-22T10:33:29;13.60;99.90
14735;DHT22;7458;49.002;8.472;2023-02-22T10:36:01;13.60;99.90
14735;DHT22;7458;49.002;8.472;2023-02-22T10:38:32;13.80;99.90
14735;DHT22;7458;49.002;8.472;2023-02-22T10:41:27;14.00;99.10
14735;DHT22;7458;49.002;8.472;2023-02-22T10:43:55;14.20;98.20
14735;DHT22;7458;49.002;8.472;2023-02-22T10:46:22;14.20;97.10
14735;DHT22;7458;49.002;8.472;2023-02-22T10:48:54;14.30;97.70
14735;DHT22;7458;49.002;8.472;2023-02-22T10:51:27;14.30;96.70
14735;DHT22;7458;49.002;8.472;2023-02-22T10:54:13;14.30;96.80
14735;DHT22;7458;49.002;8.472;2023-02-22T10:56:53;14.20;96.70
14735;DHT22;7458;49.002;8.472;2023-02-22T10:59:37;14.10;96.10
14735;DHT22;7458;49.002;8.472;2023-02-22T11:04:54;14.20;95.10
14735;DHT22;7458;49.002;8.472;2023-02-22T11:10:02;14.20;95.30
14735;DHT22;7458;49.002;8.472;2023-02-22T11:12:31;14.20;95.70
14735;DHT22;7458;49.002;8.472;2023-02-22T11:17:43;14.40;95.10
14735;DHT22;7458;49.002;8.472;2023-02-22T11:20:25;14.40;96.30
14735;DHT22;7458;49.002;8.472;2023-02-22T11:22:58;14.40;95.90
14735;DHT22;7458;49.002;8.472;2023-02-22T11:25:36;14.40;94.70
14735;DHT22;7458;49.002;8.472;2023-02-22T11:28:10;14.40;94.60
14735;DHT22;7458;49.002;8.472;2023-02-22T11:30:48;14.40;94.30
14735;DHT22;7458;49.002;8.472;2023-02-22T11:35:56;14.60;93.60
14735;DHT22;7458;49.002;8.472;2023-02-22T11:38:26;14.70;94.00
14735;DHT22;7458;49.002;8.472;2023-02-22T11:43:47;15.00;92.60
14735;DHT22;7458;49.002;8.472;2023-02-22T11:46:21;15.10;92.00
14735;DHT22;7458;49.002;8.472;2023-02-22T11:49:08;15.20;90.80
14735;DHT22;7458;49.002;8.472;2023-02-22T12:06:34;16.00;83.30
14735;DHT22;7458;49.002;8.472;2023-02-22T12:18:36;16.20;80.60
14735;DHT22;7458;49.002;8.472;2023-02-22T12:21:10;16.20;81.60
14735;DHT22;7458;49.002;8.472;2023-02-22T12:26:36;16.40;79.90
14735;DHT22;7458;49.002;8.472;2023-02-22T12:31:56;16.40;76.20
14735;DHT22;7458;49.002;8.472;2023-02-22T12:39:52;16.50;76.60
14735;DHT22;7458;49.002;8.472;2023-02-22T12:45:35;16.50;76.40
14735;DHT22;7458;49.002;8.472;2023-02-22T12:51:14;16.40;77.10
14735;DHT22;7458;49.002;8.472;2023-02-22T12:53:57;16.50;76.60
14735;DHT22;7458;49.002;8.472;2023-02-22T12:56:35;16.50;76.30
14735;DHT22;7458;49.002;8.472;2023-02-22T12:59:30;16.50;75.80
14735;DHT22;7458;49.002;8.472;2023-02-22T13:02:30;16.50;75.90
14735;DHT22;7458;49.002;8.472;2023-02-22T13:05:01;16.40;76.00
14735;DHT22;7458;49.002;8.472;2023-02-22T13:22:22;16.10;76.20
14735;DHT22;7458;49.002;8.472;2023-02-22T13:31:29;16.10;76.30
14735;DHT22;7458;49.002;8.472;2023-02-22T13:37:22;16.00;76.60
14735;DHT22;7458;49.002;8.472;2023-02-22T13:48:18;15.90;76.00
14735;DHT22;7458;49.002;8.472;2023-02-22T13:51:22;15.90;76.40
14735;DHT22;7458;49.002;8.472;2023-02-22T13:54:03;16.00;77.00
14735;DHT22;7458;49.002;8.472;2023-02-22T13:56:44;16.10;77.50
14735;DHT22;7458;49.002;8.472;2023-02-22T13:59:39;16.10;77.30
14735;DHT22;7458;49.002;8.472;2023-02-22T14:02:05;16.20;77.10
14735;DHT22;7458;49.002;8.472;2023-02-22T14:04:50;16.10;77.00
14735;DHT22;7458;49.002;8.472;2023-02-22T14:09:53;17.10;84.60
14735;DHT22;7458;49.002;8.472;2023-02-22T14:17:46;17.30;77.10
14735;DHT22;7458;49.002;8.472;2023-02-22T14:22:42;16.60;76.50
14735;DHT22;7458;49.002;8.472;2023-02-22T14:25:47;16.70;84.00
14735;DHT22;7458;49.002;8.472;2023-02-22T14:31:20;17.30;84.60
14735;DHT22;7458;49.002;8.472;2023-02-22T14:33:55;17.70;81.60
14735;DHT22;7458;49.002;8.472;2023-02-22T14:42:34;16.90;77.80
14735;DHT22;7458;49.002;8.472;2023-02-22T14:47:47;16.30;78.50
14735;DHT22;7458;49.002;8.472;2023-02-22T14:53:04;16.00;80.30
14735;DHT22;7458;49.002;8.472;2023-02-22T14:55:57;15.90;80.60
14735;DHT22;7458;49.002;8.472;2023-02-22T15:01:26;15.70;81.80
14735;DHT22;7458;49.002;8.472;2023-02-22T15:04:20;15.60;82.60
14735;DHT22;7458;49.002;8.472;2023-02-22T15:06:50;15.50;83.70
14735;DHT22;7458;49.002;8.472;2023-02-22T15:09:25;15.40;84.30
14735;DHT22;7458;49.002;8.472;2023-02-22T15:14:28;15.50;85.10
14735;DHT22;7458;49.002;8.472;2023-02-22T15:16:59;15.40;85.10
14735;DHT22;7458;49.002;8.472;2023-02-22T15:19:33;15.40;85.70
14735;DHT22;7458;49.002;8.472;2023-02-22T15:22:03;15.30;86.10
14735;DHT22;7458;49.002;8.472;2023-02-22T15:24:35;15.20;87.40
14735;DHT22;7458;49.002;8.472;2023-02-22T15:27:16;15.10;87.30
14735;DHT22;7458;49.002;8.472;2023-02-22T15:29:44;15.10;88.00
14735;DHT22;7458;49.002;8.472;2023-02-22T15:32:35;15.10;87.20
14735;DHT22;7458;49.002;8.472;2023-02-22T15:38:16;15.10;87.30
14735;DHT22;7458;49.002;8.472;2023-02-22T15:40:44;15.10;86.60
14735;DHT22;7458;49.002;8.472;2023-02-22T15:43:23;15.10;86.50
14735;DHT22;7458;49.002;8.472;2023-02-22T15:45:53;13.50;85.70
14735;DHT22;7458;49.002;8.472;2023-02-22T15:48:20;15.10;86.50
14735;DHT22;7458;49.002;8.472;2023-02-22T15:51:10;15.10;86.80
14735;DHT22;7458;49.002;8.472;2023-02-22T15:53:42;15.00;87.00
14735;DHT22;7458;49.002;8.472;2023-02-22T15:56:33;14.90;86.80
14735;DHT22;7458;49.002;8.472;2023-02-22T15:59:09;15.00;87.40
14735;DHT22;7458;49.002;8.472;2023-02-22T16:01:40;14.90;87.60
14735;DHT22;7458;49.002;8.472;2023-02-22T16:04:16;14.90;87.90
14735;DHT22;7458;49.002;8.472;2023-02-22T16:06:46;14.90;88.30
14735;DHT22;7458;49.002;8.472;2023-02-22T16:11:44;15.60;91.20
14735;DHT22;7458;49.002;8.472;2023-02-22T16:19:53;15.00;89.30
14735;DHT22;7458;49.002;8.472;2023-02-22T16:22:28;14.80;89.50
14735;DHT22;7458;49.002;8.472;2023-02-22T16:27:54;14.60;90.00
14735;DHT22;7458;49.002;8.472;2023-02-22T16:30:38;14.60;90.00
14735;DHT22;7458;49.002;8.472;2023-02-22T16:33:06;14.50;90.30
14735;DHT22;7458;49.002;8.472;2023-02-22T16:35:38;14.50;90.40
14735;DHT22;7458;49.002;8.472;2023-02-22T16:38:06;14.50;90.30
14735;DHT22;7458;49.002;8.472;2023-02-22T16:40:50;14.40;90.40
14735;DHT22;7458;49.002;8.472;2023-02-22T16:43:22;14.40;90.50
14735;DHT22;7458;49.002;8.472;2023-02-22T16:45:50;14.40;90.70
14735;DHT22;7458;49.002;8.472;2023-02-22T16:48:21;14.30;90.90
14735;DHT22;7458;49.002;8.472;2023-02-22T16:50:49;14.30;91.20
14735;DHT22;7458;49.002;8.472;2023-02-22T16:53:20;14.20;91.10
14735;DHT22;7458;49.002;8.472;2023-02-22T16:55:50;14.20;91.20
14735;DHT22;7458;49.002;8.472;2023-02-22T16:58:22;14.20;91.30
14735;DHT22;7458;49.002;8.472;2023-02-22T17:00:52;14.10;91.30
14735;DHT22;7458;49.002;8.472;2023-02-22T17:03:19;14.00;91.90
14735;DHT22;7458;49.002;8.472;2023-02-22T17:05:45;14.00;91.70
14735;DHT22;7458;49.002;8.472;2023-02-22T17:08:11;14.00;91.80
14735;DHT22;7458;49.002;8.472;2023-02-22T17:10:37;14.00;92.20
14735;DHT22;7458;49.002;8.472;2023-02-22T17:13:05;13.80;92.40
14735;DHT22;7458;49.002;8.472;2023-02-22T17:15:33;13.70;95.50
14735;DHT22;7458;49.002;8.472;2023-02-22T17:18:01;14.30;95.30
14735;DHT22;7458;49.002;8.472;2023-02-22T17:20:29;14.20;94.40
14735;DHT22;7458;49.002;8.472;2023-02-22T17:23:01;14.60;99.00
14735;DHT22;7458;49.002;8.472;2023-02-22T17:25:33;14.60;96.00
14735;DHT22;7458;49.002;8.472;2023-02-22T17:28:02;14.30;94.80
14735;DHT22;7458;49.002;8.472;2023-02-22T17:30:29;14.10;95.10
14735;DHT22;7458;49.002;8.472;2023-02-22T17:32:58;14.00;95.60
14735;DHT22;7458;49.002;8.472;2023-02-22T17:35:36;13.90;95.70
14735;DHT22;7458;49.002;8.472;2023-02-22T17:38:04;13.80;96.10
14735;DHT22;7458;49.002;8.472;2023-02-22T17:40:32;13.70;96.60
14735;DHT22;7458;49.002;8.472;2023-02-22T17:43:00;13.70;96.90
14735;DHT22;7458;49.002;8.472;2023-02-22T17:45:27;13.60;97.30
14735;DHT22;7458;49.002;8.472;2023-02-22T17:47:52;13.50;97.60
14735;DHT22;7458;49.002;8.472;2023-02-22T17:50:20;13.50;97.80
14735;DHT22;7458;49.002;8.472;2023-02-22T17:52:48;13.50;98.10
14735;DHT22;7458;49.002;8.472;2023-02-22T17:55:18;13.50;98.20
14735;DHT22;7458;49.002;8.472;2023-02-22T17:57:45;13.50;98.00
14735;DHT22;7458;49.002;8.472;2023-02-22T18:00:15;13.60;97.80
14735;DHT22;7458;49.002;8.472;2023-02-22T18:02:50;13.60;97.80
14735;DHT22;7458;49.002;8.472;2023-02-22T18:05:17;13.50;97.90
14735;DHT22;7458;49.002;8.472;2023-02-22T18:07:44;13.50;97.90
14735;DHT22;7458;49.002;8.472;2023-02-22T18:10:11;13.50;98.10
14735;DHT22;7458;49.002;8.472;2023-02-22T18:12:38;13.50;98.20
14735;DHT22;7458;49.002;8.472;2023-02-22T18:15:06;13.50;98.30
14735;DHT22;7458;49.002;8.472;2023-02-22T18:17:33;13.60;98.40
14735;DHT22;7458;49.002;8.472;2023-02-22T18:20:00;13.50;98.60
14735;DHT22;7458;49.002;8.472;2023-02-22T18:22:25;13.60;98.70
14735;DHT22;7458;49.002;8.472;2023-02-22T18:24:51;13.60;98.70
14735;DHT22;7458;49.002;8.472;2023-02-22T18:27:19;13.50;98.80
14735;DHT22;7458;49.002;8.472;2023-02-22T18:29:45;13.40;99.00
14735;DHT22;7458;49.002;8.472;2023-02-22T18:32:11;13.40;99.10
14735;DHT22;7458;49.002;8.472;2023-02-22T18:34:38;13.40;99.20
14735;DHT22;7458;49.002;8.472;2023-02-22T18:37:04;13.30;99.40
14735;DHT22;7458;49.002;8.472;2023-02-22T18:39:31;13.30;99.50
14735;DHT22;7458;49.002;8.472;2023-02-22T18:42:04;13.30;99.40
14735;DHT22;7458;49.002;8.472;2023-02-22T18:44:30;13.30;99.50
14735;DHT22;7458;49.002;8.472;2023-02-22T18:46:57;13.30;99.70
14735;DHT22;7458;49.002;8.472;2023-02-22T18:49:22;13.30;99.70
14735;DHT22;7458;49.002;8.472;2023-02-22T18:51:50;13.20;99.80
14735;DHT22;7458;49.002;8.472;2023-02-22T18:54:16;13.60;99.90
14735;DHT22;7458;49.002;8.472;2023-02-22T18:56:44;13.20;99.90
14735;DHT22;7458;49.002;8.472;2023-02-22T18:59:11;13.20;99.90
14735;DHT22;7458;49.002;8.472;2023-02-22T19:01:39;12.60;99.90
14735;DHT22;7458;49.002;8.472;2023-02-22T19:04:08;13.20;99.90
14735;DHT22;7458;49.002;8.472;2023-02-22T19:06:35;13.20;99.90
14735;DHT22;7458;49.002;8.472;2023-02-22T19:09:02;13.10;99.90
14735;DHT22;7458;49.002;8.472;2023-02-22T19:11:33;13.10;99.90
14735;DHT22;7458;49.002;8.472;2023-02-22T19:14:00;13.10;99.90
14735;DHT22;7458;49.002;8.472;2023-02-22T19:16:29;13.20;99.90